Lake Swannanoa, New Jersey
Current Conditions -  °F | °C
As of 12:53 AM on Saturday 20 Dec 2014 (Local Time) from KFWN Reporting Station
Overcast Overcast  
Wind Chill: 22°   Ceiling: 2800
Heat Index: 29°   Visibility: 10mi
Dew Point: 21°   Wind: 7mph
Humidity: 72%   Direction: 330°NNW
Pressure: 30.18"   Gusts: NA
Location:  41.0321°N, 74.5162°W
Report Text: KFWN 200553Z AUTO 33006KT 10SM OVC028 M02/M06 A3018 RMK AO2 SLP224 T10171061 11011 21022 50008
Loading
Personal Weather Stations






























Interactive Weather Map New forecast layout! Learn more

10-Day Weather Forecast

Advertisements
Track Severe Weather on mobile